Time;durP1;ratioP1;P1;durP2;ratioP2;P2;SDS_P1;SDS_P2;PMS_P1;PMS_P2;Temp;Humidity;BMP_temperature;BMP_pressure;BME280_temperature;BME280_humidity;BME280_pressure;Samples;Min_cycle;Max_cycle;Signal;HPM_P1;HPM_P2
2023/08/31 00:00:28;;;;;;;;;3.00;2.25;;;;;23.09;38.45;100702.28;4959189;28;45435;-42
2023/08/31 00:02:54;;;;;;;;;4.00;2.50;;;;;23.10;38.32;100703.13;4958674;28;46175;-42
2023/08/31 00:05:19;;;;;;;;;4.00;3.50;;;;;23.10;38.39;100711.88;4959233;28;45351;-43
2023/08/31 00:07:44;;;;;;;;;3.00;2.00;;;;;23.10;38.63;100708.41;4941600;28;45292;-43
2023/08/31 00:10:11;;;;;;;;;2.00;2.00;;;;;23.09;38.58;100702.28;4958963;28;45590;-43
2023/08/31 00:12:37;;;;;;;;;2.50;2.00;;;;;23.10;38.53;100717.16;4958639;28;47326;-43
2023/08/31 00:15:04;;;;;;;;;2.00;2.00;;;;;23.08;38.14;100721.75;4957286;28;45476;-43
2023/08/31 00:17:30;;;;;;;;;1.00;1.00;;;;;23.08;38.40;100716.44;4958700;28;45338;-40
2023/08/31 00:19:55;;;;;;;;;2.50;2.50;;;;;23.10;38.12;100724.25;4958961;28;45525;-43
2023/08/31 00:22:21;;;;;;;;;1.75;1.75;;;;;23.09;38.49;100718.16;4958655;28;45402;-42
2023/08/31 00:24:46;;;;;;;;;2.00;2.00;;;;;23.08;38.44;100711.16;4941000;28;48022;-42
2023/08/31 00:27:14;;;;;;;;;2.00;2.00;;;;;23.09;38.66;100712.00;4958712;28;45449;-42
2023/08/31 00:29:39;;;;;;;;;2.00;2.00;;;;;23.08;38.14;100713.81;4958813;28;45529;-41
2023/08/31 00:32:05;;;;;;;;;2.50;2.00;;;;;23.09;38.19;100718.16;4958397;28;46062;-42
2023/08/31 00:34:31;;;;;;;;;3.25;3.00;;;;;23.09;38.21;100714.63;4958461;28;45319;-43
2023/08/31 00:36:56;;;;;;;;;2.00;2.00;;;;;23.08;38.66;100708.53;4958611;28;45292;-41
2023/08/31 00:39:21;;;;;;;;;2.50;2.00;;;;;23.07;38.60;100701.53;4958884;28;45537;-41
2023/08/31 00:41:47;;;;;;;;;2.00;2.00;;;;;23.08;38.50;100695.31;4958129;28;46012;-42
2023/08/31 00:44:13;;;;;;;;;1.75;1.00;;;;;23.08;38.13;100684.72;4958279;28;45398;-42
2023/08/31 00:46:38;;;;;;;;;1.00;1.00;;;;;23.07;38.67;100683.03;4940705;28;45394;-42
2023/08/31 00:49:04;;;;;;;;;2.25;2.25;;;;;23.07;38.61;100698.03;4941046;28;45365;-42
2023/08/31 00:51:29;;;;;;;;;4.00;1.25;;;;;23.07;38.40;100701.53;4958110;28;46411;-42
2023/08/31 00:53:55;;;;;;;;;4.75;2.50;;;;;23.06;38.40;100702.50;4958133;28;45400;-42
2023/08/31 00:56:21;;;;;;;;;3.50;2.00;;;;;23.07;38.79;100693.59;4957579;28;45415;-42
2023/08/31 00:58:47;;;;;;;;;2.75;2.00;;;;;23.07;38.70;100693.59;4958388;28;45307;-42
2023/08/31 01:01:30;;;;;;;;;2.75;1.75;;;;;23.06;38.40;100697.19;4957810;28;45404;-43
2023/08/31 01:04:09;;;;;;;;;2.50;2.00;;;;;23.05;38.20;100689.34;4958043;28;45474;-43
2023/08/31 01:06:47;;;;;;;;;2.00;1.50;;;;;23.05;38.40;100692.84;4958090;28;45425;-44
2023/08/31 01:09:25;;;;;;;;;2.00;1.75;;;;;23.05;38.53;100695.50;4958258;28;45236;-42
2023/08/31 01:12:04;;;;;;;;;3.25;1.50;;;;;23.05;38.48;100695.50;4958169;28;46725;-45
2023/08/31 01:14:40;;;;;;;;;4.00;2.50;;;;;23.05;38.83;100695.50;4957718;28;45651;-43
2023/08/31 01:17:08;;;;;;;;;2.00;1.25;;;;;23.05;38.28;100698.16;4958101;28;45322;-43
2023/08/31 01:19:44;;;;;;;;;3.00;2.00;;;;;23.05;38.45;100702.56;4957974;28;45709;-42
2023/08/31 01:22:21;;;;;;;;;2.50;2.25;;;;;23.05;38.62;100705.22;4955561;28;48023;-43
2023/08/31 01:24:47;;;;;;;;;1.75;1.75;;;;;23.05;38.39;100706.06;4957812;28;45791;-44
2023/08/31 01:27:13;;;;;;;;;2.00;2.00;;;;;23.04;38.49;100709.66;4957893;28;45414;-43
2023/08/31 01:29:38;;;;;;;;;2.25;1.25;;;;;23.04;38.88;100709.66;4957826;28;45529;-44
2023/08/31 01:32:07;;;;;;;;;2.00;2.00;;;;;23.02;38.83;100706.28;4957157;28;55594;-44
2023/08/31 01:34:33;;;;;;;;;4.25;2.00;;;;;23.04;38.36;100711.47;4957439;28;45825;-44
2023/08/31 01:37:03;;;;;;;;;2.50;2.00;;;;;23.03;38.81;100705.31;4957897;28;45303;-42
2023/08/31 01:39:38;;;;;;;;;2.25;2.00;;;;;23.02;38.75;100706.28;4957818;28;45274;-42
2023/08/31 01:42:06;;;;;;;;;2.00;2.00;;;;;23.03;38.65;100710.63;4957174;28;46717;-42
2023/08/31 01:44:34;;;;;;;;;2.00;2.00;;;;;23.03;38.74;100705.31;4957387;28;45647;-41
2023/08/31 01:47:05;;;;;;;;;1.25;1.25;;;;;23.03;38.59;100709.78;4957377;28;45405;-42
2023/08/31 01:49:40;;;;;;;;;1.25;1.00;;;;;23.02;38.33;100706.28;4957418;28;45523;-42
2023/08/31 01:52:07;;;;;;;;;1.00;1.00;;;;;23.03;38.59;100709.78;4957069;28;46361;-40
2023/08/31 01:54:33;;;;;;;;;2.00;2.00;;;;;23.03;38.93;100707.97;4955997;28;45215;-41
2023/08/31 01:56:58;;;;;;;;;3.00;2.00;;;;;23.01;38.59;100705.44;4957720;28;45460;-41
2023/08/31 01:59:24;;;;;;;;;1.75;1.00;;;;;23.01;38.48;100694.00;4956440;28;45385;-41
2023/08/31 02:01:49;;;;;;;;;1.50;1.50;;;;;23.01;38.44;100694.00;4957070;28;46089;-43
2023/08/31 02:04:14;;;;;;;;;2.00;2.00;;;;;23.01;38.53;100701.94;4957115;28;45275;-43
2023/08/31 02:06:40;;;;;;;;;1.75;1.75;;;;;23.01;38.74;100699.28;4957380;28;45336;-41
2023/08/31 02:09:05;;;;;;;;;1.50;1.50;;;;;23.01;38.77;100704.59;4960845;28;45625;-42
2023/08/31 02:11:31;;;;;;;;;2.00;2.00;;;;;23.01;38.31;100704.59;4960399;28;45623;-41
2023/08/31 02:13:57;;;;;;;;;2.00;2.00;;;;;23.00;39.07;100697.59;4960764;28;45389;-41
2023/08/31 02:16:22;;;;;;;;;2.00;2.00;;;;;23.00;38.64;100709.03;4960674;28;45485;-41
2023/08/31 02:18:48;;;;;;;;;3.00;2.75;;;;;23.02;38.48;100703.63;4960653;28;45361;-43
2023/08/31 02:21:13;;;;;;;;;3.25;2.00;;;;;23.00;38.79;100697.59;4960431;28;45308;-44
2023/08/31 02:23:38;;;;;;;;;2.00;2.00;;;;;23.00;38.77;100697.59;4942485;28;51321;-44
2023/08/31 02:26:04;;;;;;;;;2.75;1.25;;;;;23.00;38.92;100694.97;4960494;28;45305;-42
2023/08/31 02:28:29;;;;;;;;;3.00;1.25;;;;;23.01;38.68;100696.66;4959669;28;45584;-41
2023/08/31 02:30:59;;;;;;;;;2.00;1.00;;;;;22.99;38.97;100698.53;4960116;28;46008;-41
2023/08/31 02:33:24;;;;;;;;;2.25;1.25;;;;;23.00;38.82;100702.88;4960319;28;45339;-41
2023/08/31 02:35:50;;;;;;;;;1.25;1.25;;;;;23.00;38.71;100689.66;4960411;28;45438;-41
2023/08/31 02:38:15;;;;;;;;;1.00;1.00;;;;;22.99;38.89;100702.06;4943107;28;45489;-42
2023/08/31 02:40:41;;;;;;;;;1.50;1.00;;;;;22.97;38.54;100700.47;4960151;28;46213;-43
2023/08/31 02:43:06;;;;;;;;;1.75;1.00;;;;;22.99;38.49;100711.75;4958764;28;45509;-42
2023/08/31 02:45:32;;;;;;;;;2.25;2.00;;;;;22.98;38.69;100697.72;4959865;28;48886;-43
2023/08/31 02:47:57;;;;;;;;;3.00;2.00;;;;;22.98;38.56;100699.53;4960605;28;45524;-42
2023/08/31 02:50:22;;;;;;;;;3.25;1.75;;;;;22.97;38.88;100701.31;4959975;28;45470;-42
2023/08/31 02:52:48;;;;;;;;;1.50;0.75;;;;;22.98;38.45;100710.94;4960077;28;45288;-43
2023/08/31 02:55:13;;;;;;;;;3.50;2.25;;;;;22.99;38.64;100714.41;4959999;28;45289;-43
2023/08/31 02:57:38;;;;;;;;;2.25;1.25;;;;;22.97;38.64;100709.25;4960218;28;45429;-43
2023/08/31 03:00:08;;;;;;;;;1.75;1.75;;;;;22.98;38.39;100699.53;4959674;28;46773;-43
2023/08/31 03:02:34;;;;;;;;;1.00;1.00;;;;;22.98;38.84;100708.28;4959746;28;45741;-42
2023/08/31 03:05:01;;;;;;;;;1.75;1.75;;;;;22.97;39.11;100703.13;4960289;28;45366;-44
2023/08/31 03:07:26;;;;;;;;;2.25;2.00;;;;;22.98;38.88;100704.81;4942595;28;45270;-42
2023/08/31 03:09:52;;;;;;;;;2.00;2.00;;;;;22.96;38.53;100701.41;4959119;28;61053;-42
2023/08/31 03:12:17;;;;;;;;;1.00;1.00;;;;;22.99;38.68;100703.84;4959707;28;45421;-41
2023/08/31 03:14:42;;;;;;;;;1.50;1.50;;;;;22.97;38.94;100703.13;4959721;28;45488;-44
2023/08/31 03:17:08;;;;;;;;;1.50;1.00;;;;;22.96;39.04;100696.13;4960179;28;45457;-43
2023/08/31 03:19:33;;;;;;;;;1.25;1.25;;;;;22.96;38.81;100696.97;4959049;28;45207;-42
2023/08/31 03:21:58;;;;;;;;;2.00;1.00;;;;;22.96;38.81;100696.97;4959345;28;51812;-43
2023/08/31 03:24:23;;;;;;;;;2.00;0.00;;;;;22.96;38.85;100688.22;4959548;28;47375;-42
2023/08/31 03:26:51;;;;;;;;;1.00;1.00;;;;;22.95;38.84;100683.88;4959723;28;45382;-44
2023/08/31 03:29:17;;;;;;;;;2.25;1.00;;;;;22.96;38.72;100693.50;4958221;28;45329;-43
2023/08/31 03:31:42;;;;;;;;;1.75;1.00;;;;;22.96;38.81;100690.84;4958231;28;45393;-43
2023/08/31 03:34:08;;;;;;;;;2.00;2.00;;;;;22.96;38.75;100693.50;4959112;28;52124;-41
2023/08/31 03:36:33;;;;;;;;;1.25;1.00;;;;;22.96;39.10;100696.13;4959978;28;45487;-43
2023/08/31 03:38:58;;;;;;;;;1.25;0.75;;;;;22.94;38.98;100688.28;4959187;28;45878;-43
2023/08/31 03:41:24;;;;;;;;;1.00;1.00;;;;;22.94;38.79;100690.94;4959174;28;45430;-42
2023/08/31 03:43:49;;;;;;;;;2.00;2.00;;;;;22.94;38.51;100690.09;4959199;28;45458;-43
2023/08/31 03:46:15;;;;;;;;;2.00;1.00;;;;;22.95;38.95;100690.00;4941908;28;45443;-42
2023/08/31 03:48:40;;;;;;;;;1.75;1.00;;;;;22.94;38.91;100688.28;4958431;28;63659;-42
2023/08/31 03:51:05;;;;;;;;;2.25;2.00;;;;;22.95;38.89;100697.09;4959098;28;45371;-43
2023/08/31 03:53:31;;;;;;;;;2.00;2.00;;;;;22.93;39.09;100691.88;4959519;28;45330;-43
2023/08/31 03:55:56;;;;;;;;;1.50;1.00;;;;;22.95;38.65;100695.28;4959370;28;45555;-42
2023/08/31 03:58:21;;;;;;;;;1.50;1.50;;;;;22.93;39.23;100691.88;4958753;28;47363;-43
2023/08/31 04:00:50;;;;;;;;;3.00;1.50;;;;;22.94;38.98;100688.28;4958894;28;45315;-42
2023/08/31 04:03:15;;;;;;;;;2.25;2.25;;;;;22.93;39.24;100686.59;4959142;28;45371;-42
2023/08/31 04:05:41;;;;;;;;;2.25;1.00;;;;;22.94;38.76;100692.75;4959372;28;45277;-42
2023/08/31 04:08:06;;;;;;;;;2.75;2.00;;;;;22.93;38.76;100693.69;4958705;28;46254;-41
2023/08/31 04:10:32;;;;;;;;;1.00;1.00;;;;;22.93;39.15;100693.69;4959014;28;45268;-41
2023/08/31 04:12:58;;;;;;;;;1.00;1.00;;;;;22.94;39.08;100690.94;4958881;28;45521;-42
2023/08/31 04:15:23;;;;;;;;;2.50;1.25;;;;;22.94;38.78;100698.03;4959174;28;45544;-42
2023/08/31 04:17:49;;;;;;;;;1.50;1.00;;;;;22.93;39.23;100699.81;4958054;28;64564;-42
2023/08/31 04:20:15;;;;;;;;;1.75;1.00;;;;;22.93;38.79;100701.63;4958548;28;45697;-42
2023/08/31 04:22:40;;;;;;;;;1.50;1.00;;;;;22.92;39.23;100695.50;4958637;28;45475;-43
2023/08/31 04:25:06;;;;;;;;;3.00;1.00;;;;;22.91;39.17;100692.94;4959015;28;45580;-42
2023/08/31 04:27:32;;;;;;;;;2.75;1.50;;;;;22.91;38.82;100692.94;4958308;28;46461;-41
2023/08/31 04:30:00;;;;;;;;;2.25;2.25;;;;;22.90;39.17;100691.25;4940942;28;45382;-42
2023/08/31 04:32:25;;;;;;;;;3.00;1.75;;;;;22.90;39.18;100691.25;4958400;28;45466;-42
2023/08/31 04:34:51;;;;;;;;;2.75;1.00;;;;;22.86;39.32;100693.25;4958680;28;45525;-42
2023/08/31 04:37:17;;;;;;;;;2.00;2.00;;;;;22.84;39.59;100703.94;4958185;28;46438;-42
2023/08/31 04:39:42;;;;;;;;;1.00;1.00;;;;;22.84;39.14;100705.72;4957879;28;60619;-42
2023/08/31 04:42:08;;;;;;;;;1.00;0.00;;;;;22.84;39.30;100703.94;4958676;28;45281;-42
2023/08/31 04:44:33;;;;;;;;;2.00;2.00;;;;;22.82;39.40;100702.38;4958837;28;45467;-43
2023/08/31 04:46:59;;;;;;;;;1.75;1.75;;;;;22.80;39.30;100709.53;4958333;28;46230;-44
2023/08/31 04:49:24;;;;;;;;;2.25;1.00;;;;;22.79;39.80;100711.31;4940448;28;59634;-43
2023/08/31 04:51:49;;;;;;;;;2.50;1.50;;;;;22.81;39.55;100713.88;4958371;28;45519;-43
2023/08/31 04:54:15;;;;;;;;;3.00;2.00;;;;;22.80;39.23;100713.03;4958372;28;45315;-41
2023/08/31 04:56:40;;;;;;;;;4.75;2.00;;;;;22.81;39.35;100717.34;4957908;28;46229;-43
2023/08/31 04:59:05;;;;;;;;;3.00;3.00;;;;;22.81;39.43;100716.53;4958402;28;45543;-43
2023/08/31 05:01:31;;;;;;;;;2.75;2.00;;;;;22.80;39.71;100720.13;4958263;28;45444;-43
2023/08/31 05:03:56;;;;;;;;;3.00;1.75;;;;;22.79;39.31;100721.88;4958353;28;45307;-45
2023/08/31 05:06:22;;;;;;;;;2.75;2.00;;;;;22.80;39.57;100722.75;4957760;28;45399;-44
2023/08/31 05:08:48;;;;;;;;;1.00;1.00;;;;;22.78;40.21;100722.84;4957970;28;45372;-44
2023/08/31 05:11:13;;;;;;;;;3.25;2.75;;;;;22.77;40.36;100718.50;4958099;28;45248;-44
2023/08/31 05:13:41;;;;;;;;;1.75;1.75;;;;;22.77;39.90;100715.84;4958658;28;45577;-44
2023/08/31 05:16:07;;;;;;;;;2.25;2.00;;;;;22.76;39.99;100722.13;4958125;28;46290;-44
2023/08/31 05:18:32;;;;;;;;;3.75;2.00;;;;;22.77;39.96;100715.03;4957797;28;45363;-43
2023/08/31 05:20:58;;;;;;;;;2.50;1.00;;;;;22.77;39.97;100723.78;4957331;28;53546;-43
2023/08/31 05:23:24;;;;;;;;;1.00;1.00;;;;;22.76;40.08;100721.25;4957765;28;45568;-42
2023/08/31 05:25:49;;;;;;;;;1.50;1.50;;;;;22.76;40.12;100727.41;4957498;28;46152;-42
2023/08/31 05:28:14;;;;;;;;;3.50;1.00;;;;;22.76;40.16;100732.69;4957682;28;45414;-42
2023/08/31 05:30:49;;;;;;;;;2.50;2.00;;;;;22.74;39.82;100729.28;4958082;28;45302;-43
2023/08/31 05:33:15;;;;;;;;;4.00;3.00;;;;;22.75;40.18;100736.28;4957740;28;45494;-43
2023/08/31 05:35:40;;;;;;;;;2.75;1.75;;;;;22.75;39.90;100736.28;4957826;28;46357;-44
2023/08/31 05:38:05;;;;;;;;;3.75;3.00;;;;;22.75;40.16;100735.41;4957445;28;45413;-43
2023/08/31 05:40:30;;;;;;;;;2.50;2.00;;;;;22.74;39.58;100742.50;4957388;28;45437;-44
2023/08/31 05:42:56;;;;;;;;;3.25;1.75;;;;;22.74;40.15;100739.88;4957095;28;45543;-44
2023/08/31 05:45:21;;;;;;;;;2.00;2.00;;;;;22.74;39.95;100745.16;4957340;28;46291;-44
2023/08/31 05:47:46;;;;;;;;;2.00;2.00;;;;;22.74;40.03;100737.22;4956893;28;58580;-42
2023/08/31 05:50:12;;;;;;;;;2.25;1.50;;;;;22.73;39.81;100746.09;4957686;28;45219;-44
2023/08/31 05:52:37;;;;;;;;;1.00;1.00;;;;;22.73;39.93;100748.72;4957935;28;45539;-44
2023/08/31 05:55:03;;;;;;;;;4.00;2.00;;;;;22.73;40.15;100746.09;4955845;28;47754;-44
2023/08/31 05:57:28;;;;;;;;;7.00;2.75;;;;;22.72;40.16;100747.03;4957397;28;45256;-41
2023/08/31 05:59:54;;;;;;;;;2.00;1.00;;;;;22.71;39.75;100750.63;4957442;28;45504;-43
2023/08/31 06:02:19;;;;;;;;;2.00;2.00;;;;;22.72;40.03;100754.09;4940055;28;45264;-43
2023/08/31 06:04:45;;;;;;;;;4.75;2.00;;;;;22.72;40.10;100756.75;4956668;28;59740;-43
2023/08/31 06:07:10;;;;;;;;;2.00;2.00;;;;;22.72;40.52;100754.97;4957496;28;45221;-43
2023/08/31 06:09:35;;;;;;;;;2.75;2.00;;;;;22.70;40.26;100756.84;4957153;28;45190;-43
2023/08/31 06:12:00;;;;;;;;;3.50;1.75;;;;;22.72;40.13;100759.38;4957150;28;45228;-43
2023/08/31 06:14:26;;;;;;;;;2.00;2.00;;;;;22.70;40.08;100762.13;4957047;28;45349;-43
2023/08/31 06:16:52;;;;;;;;;2.00;1.75;;;;;22.71;39.98;100766.47;4957172;28;45163;-42
2023/08/31 06:19:17;;;;;;;;;2.50;2.00;;;;;22.70;39.87;100762.13;4957110;28;45315;-42
2023/08/31 06:21:43;;;;;;;;;2.00;2.00;;;;;22.70;39.93;100759.50;4957447;28;45233;-43
2023/08/31 06:24:12;;;;;;;;;1.25;1.00;;;;;22.70;39.92;100759.50;4955451;28;47158;-43
2023/08/31 06:26:38;;;;;;;;;1.00;1.00;;;;;22.70;40.31;100760.34;4956963;28;45488;-43
2023/08/31 06:29:03;;;;;;;;;1.00;1.00;;;;;22.69;39.33;100758.66;4956966;28;45512;-42
2023/08/31 06:31:29;;;;;;;;;4.00;1.00;;;;;22.70;39.91;100759.50;4957220;28;45236;-43
2023/08/31 06:33:54;;;;;;;;;2.50;0.00;;;;;22.70;39.87;100756.84;4956776;28;45497;-42
2023/08/31 06:36:20;;;;;;;;;3.00;1.50;;;;;22.70;39.93;100762.13;4956851;28;45358;-43
2023/08/31 06:38:45;;;;;;;;;2.00;2.00;;;;;22.72;39.71;100762.03;4957174;28;45311;-42
2023/08/31 06:41:10;;;;;;;;;2.00;1.75;;;;;22.70;40.05;100759.50;4957431;28;45564;-41
2023/08/31 06:43:36;;;;;;;;;3.50;1.25;;;;;22.71;40.19;100766.47;4956562;28;46576;-42
2023/08/31 06:46:01;;;;;;;;;2.00;1.00;;;;;22.70;39.99;100764.78;4956646;28;45362;-43
2023/08/31 06:48:27;;;;;;;;;6.00;2.00;;;;;22.69;40.08;100768.38;4956792;28;45503;-42
2023/08/31 06:50:52;;;;;;;;;3.00;2.00;;;;;22.67;40.26;100759.69;4956245;28;54758;-43
2023/08/31 06:53:17;;;;;;;;;3.00;1.50;;;;;22.66;40.25;100773.84;4956184;28;56328;-42
2023/08/31 06:55:43;;;;;;;;;3.00;2.00;;;;;22.66;40.01;100773.84;4959452;28;53352;-41
2023/08/31 06:58:08;;;;;;;;;1.25;1.25;;;;;22.64;40.34;100771.31;4959863;28;45459;-42
2023/08/31 07:00:33;;;;;;;;;5.00;1.00;;;;;22.65;40.20;100769.53;4960223;28;45609;-41
2023/08/31 07:02:59;;;;;;;;;1.25;1.25;;;;;22.65;40.14;100777.47;4959599;28;46461;-41
2023/08/31 07:05:29;;;;;;;;;2.25;1.00;;;;;22.65;40.28;100777.47;4959877;28;45452;-42
2023/08/31 07:07:55;;;;;;;;;2.00;2.00;;;;;22.65;40.16;100778.28;4959882;28;45434;-42
2023/08/31 07:10:21;;;;;;;;;3.00;2.00;;;;;22.67;40.29;100780.81;4960029;28;45691;-42
2023/08/31 07:12:46;;;;;;;;;1.25;1.25;;;;;22.67;40.53;100786.09;4959847;28;46396;-43
2023/08/31 07:15:11;;;;;;;;;1.25;1.00;;;;;22.67;40.35;100791.38;4959599;28;45201;-44
2023/08/31 07:17:37;;;;;;;;;3.50;1.75;;;;;22.67;40.60;100786.97;4959602;28;45374;-45
2023/08/31 07:20:05;;;;;;;;;1.25;0.00;;;;;22.68;40.48;100793.94;4959859;28;45324;-44
2023/08/31 07:22:32;;;;;;;;;2.00;1.75;;;;;22.68;40.51;100791.31;4959164;28;46949;-44
2023/08/31 07:24:57;;;;;;;;;2.00;2.00;;;;;22.69;40.14;100794.78;4959641;28;45927;-44
2023/08/31 07:27:23;;;;;;;;;2.75;2.75;;;;;22.67;40.13;100794.03;4959074;28;58609;-43
2023/08/31 07:29:48;;;;;;;;;2.75;2.00;;;;;22.68;40.40;100793.94;4959907;28;45721;-42
2023/08/31 07:32:13;;;;;;;;;0.25;0.25;;;;;22.68;40.57;100798.38;4959735;28;46180;-43
2023/08/31 07:34:39;;;;;;;;;3.00;2.00;;;;;22.68;40.16;100801.00;4959514;28;45243;-44
2023/08/31 07:37:04;;;;;;;;;4.00;1.00;;;;;22.68;40.26;100811.59;4959208;28;45299;-43
2023/08/31 07:39:29;;;;;;;;;3.25;3.25;;;;;22.68;40.53;100814.22;4959332;28;45590;-43
2023/08/31 07:41:55;;;;;;;;;3.25;2.00;;;;;22.67;40.15;100808.09;4959041;28;46249;-42
2023/08/31 07:44:21;;;;;;;;;2.50;2.50;;;;;22.66;40.45;100808.19;4959086;28;45375;-44
2023/08/31 07:46:46;;;;;;;;;3.25;2.00;;;;;22.65;40.39;100810.00;4959643;28;45363;-44
2023/08/31 07:49:12;;;;;;;;;1.00;1.00;;;;;22.66;40.07;100810.81;4959424;28;45301;-42
2023/08/31 07:51:37;;;;;;;;;3.50;3.00;;;;;22.67;40.44;100812.53;4958410;28;62230;-40
2023/08/31 07:54:05;;;;;;;;;2.00;2.00;;;;;22.67;40.35;100817.81;4959071;28;45366;-44
2023/08/31 07:56:30;;;;;;;;;5.00;3.00;;;;;22.69;40.14;100816.78;4959215;28;45409;-43
2023/08/31 07:58:56;;;;;;;;;4.25;1.00;;;;;22.70;39.86;100823.75;4958845;28;49762;-43
2023/08/31 08:01:21;;;;;;;;;3.00;1.00;;;;;22.71;40.39;100819.31;4958714;28;49944;-43
2023/08/31 08:03:46;;;;;;;;;2.00;2.00;;;;;22.72;40.33;100821.00;4957979;28;45421;-43
2023/08/31 08:06:11;;;;;;;;;3.25;1.00;;;;;22.72;40.13;100818.38;4958581;28;45351;-43
2023/08/31 08:08:37;;;;;;;;;1.25;1.00;;;;;22.71;40.19;100819.31;4958959;28;45287;-43
2023/08/31 08:11:04;;;;;;;;;3.00;2.00;;;;;22.73;40.19;100824.50;4958916;28;46280;-43
2023/08/31 08:13:29;;;;;;;;;2.00;1.00;;;;;22.72;40.06;100828.94;4958857;28;45348;-44
2023/08/31 08:15:55;;;;;;;;;3.25;2.00;;;;;22.74;40.41;100818.25;4958873;28;45227;-44
2023/08/31 08:18:20;;;;;;;;;3.25;2.50;;;;;22.73;40.27;100816.56;4959401;28;45549;-42
2023/08/31 08:20:51;;;;;;;;;5.00;2.00;;;;;22.74;40.34;100821.78;4958225;28;45235;-42
2023/08/31 08:23:16;;;;;;;;;1.00;1.00;;;;;22.73;40.36;100822.72;4958325;28;52503;-44
2023/08/31 08:25:41;;;;;;;;;1.75;1.00;;;;;22.73;40.23;100817.44;4959069;28;45355;-43
2023/08/31 08:28:06;;;;;;;;;2.00;2.00;;;;;22.73;39.77;100817.44;4958275;28;56258;-44
2023/08/31 08:30:32;;;;;;;;;1.00;1.00;;;;;22.73;40.24;100812.13;4958556;28;46144;-44
2023/08/31 08:32:58;;;;;;;;;1.00;1.00;;;;;22.73;40.35;100822.72;4956709;28;62432;-43
2023/08/31 08:35:24;;;;;;;;;2.25;2.25;;;;;22.73;40.00;100812.13;4958594;28;45228;-43
2023/08/31 08:37:49;;;;;;;;;4.00;2.00;;;;;22.72;39.81;100810.44;4959088;28;45532;-43
2023/08/31 08:40:14;;;;;;;;;4.50;1.25;;;;;22.74;39.93;100808.56;4957840;28;45385;-42
2023/08/31 08:42:41;;;;;;;;;4.00;1.25;;;;;22.75;39.70;100820.81;4958398;28;45422;-42
2023/08/31 08:45:16;;;;;;;;;2.50;1.75;;;;;22.75;39.85;100823.47;4958456;28;45288;-43
2023/08/31 08:47:46;;;;;;;;;1.00;1.00;;;;;22.74;40.31;100824.41;4941346;28;45481;-43
2023/08/31 08:50:12;;;;;;;;;1.50;1.25;;;;;22.76;39.73;100833.09;4940838;28;45741;-43
2023/08/31 08:52:39;;;;;;;;;1.00;1.00;;;;;22.76;39.77;100829.59;4958340;28;45287;-41
2023/08/31 08:55:05;;;;;;;;;2.00;2.00;;;;;22.76;39.82;100827.81;4940939;28;45295;-42
2023/08/31 08:57:31;;;;;;;;;3.00;1.00;;;;;22.77;40.16;100823.34;4958486;28;45188;-44
2023/08/31 08:59:58;;;;;;;;;4.25;2.00;;;;;22.77;40.00;100826.81;4958030;28;46250;-43
2023/08/31 09:02:24;;;;;;;;;6.00;2.25;;;;;22.76;39.97;100824.28;4958245;28;45256;-42
2023/08/31 09:04:52;;;;;;;;;3.75;2.00;;;;;22.77;40.13;100828.63;4958511;28;45278;-41
2023/08/31 09:07:18;;;;;;;;;1.75;1.75;;;;;22.78;40.02;100831.16;4958368;28;45616;-42
2023/08/31 09:09:52;;;;;;;;;3.00;1.00;;;;;22.77;39.63;100826.00;4958079;28;45460;-44
2023/08/31 09:12:18;;;;;;;;;2.00;1.00;;;;;22.77;39.90;100829.47;4957940;28;45702;-42
2023/08/31 09:14:55;;;;;;;;;2.50;1.75;;;;;22.77;39.75;100829.47;4958101;28;45351;-43
2023/08/31 09:17:23;;;;;;;;;2.25;1.75;;;;;22.77;39.71;100826.00;4957747;28;45152;-43
2023/08/31 09:19:59;;;;;;;;;3.25;2.00;;;;;22.76;40.10;100833.09;4957777;28;46143;-43
2023/08/31 09:22:24;;;;;;;;;4.00;2.00;;;;;22.76;40.31;100825.16;4957714;28;45736;-44
2023/08/31 09:24:50;;;;;;;;;2.00;2.00;;;;;22.76;40.03;100822.53;4940882;28;45409;-43
2023/08/31 09:27:16;;;;;;;;;1.00;1.00;;;;;22.75;40.05;100827.88;4958020;28;45359;-42
2023/08/31 09:29:45;;;;;;;;;1.50;1.00;;;;;22.73;40.13;100828.00;4957598;28;47463;-43
2023/08/31 09:32:16;;;;;;;;;3.00;1.25;;;;;22.73;40.25;100833.28;4957632;28;45188;-43
2023/08/31 09:34:41;;;;;;;;;3.00;2.00;;;;;22.72;40.33;100828.94;4957872;28;45345;-43
2023/08/31 09:37:09;;;;;;;;;1.00;1.00;;;;;22.70;40.43;100829.06;4957887;28;45496;-43
2023/08/31 09:39:39;;;;;;;;;3.00;3.00;;;;;22.70;40.47;100820.25;4957427;28;46490;-43
2023/08/31 09:42:04;;;;;;;;;2.00;2.00;;;;;22.72;40.70;100815.72;4957423;28;45299;-44
2023/08/31 09:44:30;;;;;;;;;3.75;2.00;;;;;22.72;40.63;100815.72;4957671;28;45586;-44
2023/08/31 09:46:56;;;;;;;;;2.25;2.00;;;;;22.71;40.63;100814.03;4958138;28;45556;-41
2023/08/31 09:49:22;;;;;;;;;0.75;0.00;;;;;22.70;40.56;100817.63;4957632;28;45346;-43
2023/08/31 09:51:50;;;;;;;;;2.50;2.00;;;;;22.69;40.57;100800.06;4957482;28;45445;-43
2023/08/31 09:54:18;;;;;;;;;2.50;2.50;;;;;22.69;40.72;100814.13;4957552;28;45427;-43
2023/08/31 09:56:45;;;;;;;;;1.00;1.00;;;;;22.72;40.59;100815.72;4957601;28;45573;-40
2023/08/31 09:59:12;;;;;;;;;3.25;2.00;;;;;22.69;40.54;100816.78;4957260;28;45449;-43
2023/08/31 10:01:38;;;;;;;;;2.00;2.00;;;;;22.71;40.65;100814.03;4957373;28;46262;-42
2023/08/31 10:04:05;;;;;;;;;2.50;1.25;;;;;22.70;40.92;100820.25;4957347;28;45256;-43
2023/08/31 10:06:32;;;;;;;;;2.25;2.00;;;;;22.69;40.45;100819.44;4957484;28;45521;-42
2023/08/31 10:08:58;;;;;;;;;2.75;2.75;;;;;22.70;40.58;100817.63;4957432;28;46198;-42
2023/08/31 10:11:25;;;;;;;;;4.00;1.00;;;;;22.69;40.59;100810.63;4940161;28;45199;-45
2023/08/31 10:13:53;;;;;;;;;3.50;2.00;;;;;22.68;40.98;100807.16;4957287;28;45385;-44
2023/08/31 10:16:20;;;;;;;;;6.50;2.00;;;;;22.67;40.87;100800.19;4957355;28;45564;-43
2023/08/31 10:18:45;;;;;;;;;2.00;2.00;;;;;22.69;41.31;100802.72;4957008;28;45607;-43
2023/08/31 10:21:11;;;;;;;;;2.00;2.00;;;;;22.66;41.08;100801.13;4957026;28;45394;-42
2023/08/31 10:23:44;;;;;;;;;2.00;2.00;;;;;22.66;41.27;100797.63;4956882;28;45323;-44
2023/08/31 10:26:09;;;;;;;;;2.50;2.00;;;;;22.66;41.45;100797.63;4957407;28;45329;-44
2023/08/31 10:28:40;;;;;;;;;4.00;2.25;;;;;22.64;41.86;100807.47;4956927;28;46017;-43
2023/08/31 10:31:18;;;;;;;;;2.00;2.00;;;;;22.61;41.65;100797.91;4960372;28;45801;-43
2023/08/31 10:33:54;;;;;;;;;2.50;2.00;;;;;22.62;41.67;100790.84;4960464;28;45537;-45
2023/08/31 10:36:20;;;;;;;;;4.00;2.00;;;;;22.61;41.45;100797.09;4960701;28;45278;-41
2023/08/31 10:38:57;;;;;;;;;4.00;2.00;;;;;22.60;42.28;100792.75;4960369;28;45338;-43
2023/08/31 10:41:24;;;;;;;;;4.50;3.00;;;;;22.60;42.06;100792.75;4960332;28;45729;-42
2023/08/31 10:43:53;;;;;;;;;3.75;2.25;;;;;22.60;42.20;100790.09;4960345;28;45462;-44
2023/08/31 10:46:43;;;;;;;;;1.75;1.75;;;;;22.59;42.07;100793.69;4960518;28;45512;-44
2023/08/31 10:49:11;;;;;;;;;2.50;2.00;;;;;22.59;42.46;100789.28;4959847;28;46522;-45
2023/08/31 10:51:39;;;;;;;;;2.00;2.00;;;;;22.61;42.50;100789.16;4960129;28;45699;-43
2023/08/31 10:54:26;;;;;;;;;4.50;2.25;;;;;22.62;42.47;100796.16;4960262;28;45330;-42
2023/08/31 10:56:57;;;;;;;;;2.75;2.75;;;;;22.62;42.27;100788.22;4960399;28;45306;-44
2023/08/31 10:59:25;;;;;;;;;5.75;3.00;;;;;22.64;42.09;100786.31;4959963;28;46022;-45
2023/08/31 11:01:53;;;;;;;;;2.00;2.00;;;;;22.66;42.17;100789.69;4960184;28;45429;-42
2023/08/31 11:04:19;;;;;;;;;2.00;2.00;;;;;22.66;42.60;100784.41;4959933;28;45464;-43
2023/08/31 11:06:45;;;;;;;;;3.00;3.00;;;;;22.67;42.61;100783.47;4960156;28;45331;-42
2023/08/31 11:09:21;;;;;;;;;4.50;2.25;;;;;22.69;42.50;100781.56;4959725;28;45459;-42
2023/08/31 11:11:48;;;;;;;;;3.50;2.00;;;;;22.69;42.22;100784.22;4959957;28;45825;-42
2023/08/31 11:14:13;;;;;;;;;2.25;2.25;;;;;22.67;42.31;100776.41;4959922;28;45392;-42
2023/08/31 11:16:38;;;;;;;;;5.00;3.25;;;;;22.66;42.24;100773.84;4959708;28;45409;-42
2023/08/31 11:19:04;;;;;;;;;3.50;3.50;;;;;22.63;42.37;100768.78;4959711;28;45933;-43
2023/08/31 11:21:31;;;;;;;;;4.00;3.25;;;;;22.61;42.19;100766.22;4960002;28;45267;-43